sensor_id;sensor_type;location;lat;lon;timestamp;pressure;altitude;pressure_sealevel;temperature;humidity
10668;BME280;5382;42.136;24.796;2023-01-31T00:00:27;99451.47;;;3.80;100.00
10668;BME280;5382;42.136;24.796;2023-01-31T00:02:54;99441.84;;;3.80;99.54
10668;BME280;5382;42.136;24.796;2023-01-31T00:05:21;99471.00;;;3.90;98.03
10668;BME280;5382;42.136;24.796;2023-01-31T00:07:47;99456.03;;;3.92;96.59
10668;BME280;5382;42.136;24.796;2023-01-31T00:10:15;99462.66;;;3.99;94.50
10668;BME280;5382;42.136;24.796;2023-01-31T00:12:42;99451.19;;;4.02;93.91
10668;BME280;5382;42.136;24.796;2023-01-31T00:15:10;99443.84;;;3.92;92.28
10668;BME280;5382;42.136;24.796;2023-01-31T00:17:40;99434.97;;;3.95;92.56
10668;BME280;5382;42.136;24.796;2023-01-31T00:20:09;99456.56;;;4.16;92.08
10668;BME280;5382;42.136;24.796;2023-01-31T00:22:36;99483.19;;;4.24;92.98
10668;BME280;5382;42.136;24.796;2023-01-31T00:25:04;99420.47;;;4.05;94.06
10668;BME280;5382;42.136;24.796;2023-01-31T00:27:31;99439.06;;;4.17;93.57
10668;BME280;5382;42.136;24.796;2023-01-31T00:29:57;99430.44;;;4.14;93.57
10668;BME280;5382;42.136;24.796;2023-01-31T00:32:25;99453.44;;;4.25;91.36
10668;BME280;5382;42.136;24.796;2023-01-31T00:34:53;99451.66;;;4.26;92.74
10668;BME280;5382;42.136;24.796;2023-01-31T00:37:20;99455.28;;;4.23;91.80
10668;BME280;5382;42.136;24.796;2023-01-31T00:39:47;99435.34;;;4.21;92.49
10668;BME280;5382;42.136;24.796;2023-01-31T00:42:14;99426.91;;;4.15;93.62
10668;BME280;5382;42.136;24.796;2023-01-31T00:44:40;99426.75;;;4.19;93.72
10668;BME280;5382;42.136;24.796;2023-01-31T00:47:07;99433.66;;;4.20;93.05
10668;BME280;5382;42.136;24.796;2023-01-31T00:49:36;99423.25;;;4.18;94.26
10668;BME280;5382;42.136;24.796;2023-01-31T00:52:03;99444.22;;;4.18;94.63
10668;BME280;5382;42.136;24.796;2023-01-31T00:54:30;99445.09;;;4.19;94.98
10668;BME280;5382;42.136;24.796;2023-01-31T00:56:56;99430.13;;;4.21;95.75
10668;BME280;5382;42.136;24.796;2023-01-31T00:59:23;99432.84;;;4.19;97.05
10668;BME280;5382;42.136;24.796;2023-01-31T01:01:50;99457.84;;;4.25;97.94
10668;BME280;5382;42.136;24.796;2023-01-31T01:04:17;99411.28;;;4.14;98.76
10668;BME280;5382;42.136;24.796;2023-01-31T01:06:45;99470.59;;;4.31;99.26
10668;BME280;5382;42.136;24.796;2023-01-31T01:09:12;99453.63;;;4.38;99.16
10668;BME280;5382;42.136;24.796;2023-01-31T01:11:39;99465.81;;;4.39;99.57
10668;BME280;5382;42.136;24.796;2023-01-31T01:14:06;99434.19;;;4.26;99.52
10668;BME280;5382;42.136;24.796;2023-01-31T01:16:35;99440.34;;;4.25;99.14
10668;BME280;5382;42.136;24.796;2023-01-31T01:19:03;99445.78;;;4.38;99.73
10668;BME280;5382;42.136;24.796;2023-01-31T01:21:31;99450.19;;;4.37;99.35
10668;BME280;5382;42.136;24.796;2023-01-31T01:24:05;99445.13;;;4.50;99.27
10668;BME280;5382;42.136;24.796;2023-01-31T01:26:32;99430.25;;;4.51;99.57
10668;BME280;5382;42.136;24.796;2023-01-31T01:29:01;99443.16;;;4.54;100.00
10668;BME280;5382;42.136;24.796;2023-01-31T01:31:28;99452.56;;;4.58;100.00
10668;BME280;5382;42.136;24.796;2023-01-31T01:33:55;99447.25;;;4.59;100.00
10668;BME280;5382;42.136;24.796;2023-01-31T01:36:24;99429.81;;;4.58;100.00
10668;BME280;5382;42.136;24.796;2023-01-31T01:38:52;99448.50;;;4.52;100.00
10668;BME280;5382;42.136;24.796;2023-01-31T01:41:20;99455.97;;;4.60;100.00
10668;BME280;5382;42.136;24.796;2023-01-31T01:43:49;99455.13;;;4.59;100.00
10668;BME280;5382;42.136;24.796;2023-01-31T01:46:19;99467.63;;;4.54;100.00
10668;BME280;5382;42.136;24.796;2023-01-31T01:48:51;99433.47;;;4.56;100.00
10668;BME280;5382;42.136;24.796;2023-01-31T01:51:20;99441.06;;;4.61;100.00
10668;BME280;5382;42.136;24.796;2023-01-31T01:53:52;99443.88;;;4.57;100.00
10668;BME280;5382;42.136;24.796;2023-01-31T01:56:24;99435.41;;;4.68;100.00
10668;BME280;5382;42.136;24.796;2023-01-31T01:58:56;99444.03;;;4.70;100.00
10668;BME280;5382;42.136;24.796;2023-01-31T02:01:29;99435.31;;;4.70;100.00
10668;BME280;5382;42.136;24.796;2023-01-31T02:03:57;99415.63;;;4.63;100.00
10668;BME280;5382;42.136;24.796;2023-01-31T02:06:24;99411.41;;;4.60;100.00
10668;BME280;5382;42.136;24.796;2023-01-31T02:08:51;99416.56;;;4.62;100.00
10668;BME280;5382;42.136;24.796;2023-01-31T02:11:21;99406.66;;;4.67;100.00
10668;BME280;5382;42.136;24.796;2023-01-31T02:13:53;99413.59;;;4.84;100.00
10668;BME280;5382;42.136;24.796;2023-01-31T02:16:21;99418.66;;;4.87;100.00
10668;BME280;5382;42.136;24.796;2023-01-31T02:18:48;99422.88;;;4.89;100.00
10668;BME280;5382;42.136;24.796;2023-01-31T02:21:43;99415.69;;;4.93;100.00
10668;BME280;5382;42.136;24.796;2023-01-31T02:27:33;99359.16;;;4.73;100.00
10668;BME280;5382;42.136;24.796;2023-01-31T02:30:36;99397.59;;;5.04;100.00
10668;BME280;5382;42.136;24.796;2023-01-31T02:33:17;99401.06;;;5.05;100.00
10668;BME280;5382;42.136;24.796;2023-01-31T02:35:55;99397.47;;;5.06;100.00
10668;BME280;5382;42.136;24.796;2023-01-31T02:38:36;99397.47;;;5.06;100.00
10668;BME280;5382;42.136;24.796;2023-01-31T02:41:14;99389.53;;;5.07;100.00
10668;BME280;5382;42.136;24.796;2023-01-31T02:43:45;99366.63;;;4.95;100.00
10668;BME280;5382;42.136;24.796;2023-01-31T02:46:41;99397.81;;;5.15;100.00
10668;BME280;5382;42.136;24.796;2023-01-31T02:49:16;99396.03;;;5.16;100.00
10668;BME280;5382;42.136;24.796;2023-01-31T02:52:02;99389.50;;;5.23;100.00
10668;BME280;5382;42.136;24.796;2023-01-31T02:54:47;99362.81;;;5.16;98.27
10668;BME280;5382;42.136;24.796;2023-01-31T02:57:36;99390.91;;;5.29;97.19
10668;BME280;5382;42.136;24.796;2023-01-31T03:00:05;99389.31;;;5.26;96.40
10668;BME280;5382;42.136;24.796;2023-01-31T03:02:33;99384.31;;;5.37;95.29
10668;BME280;5382;42.136;24.796;2023-01-31T03:05:02;99385.72;;;5.43;93.51
10668;BME280;5382;42.136;24.796;2023-01-31T03:07:30;99385.78;;;5.41;92.06
10668;BME280;5382;42.136;24.796;2023-01-31T03:10:09;99378.22;;;5.51;91.71
10668;BME280;5382;42.136;24.796;2023-01-31T03:12:51;99328.06;;;5.27;89.93
10668;BME280;5382;42.136;24.796;2023-01-31T03:15:34;99373.28;;;5.61;89.35
10668;BME280;5382;42.136;24.796;2023-01-31T03:18:23;99371.22;;;5.66;89.10
10668;BME280;5382;42.136;24.796;2023-01-31T03:20:56;99390.50;;;5.65;88.08
10668;BME280;5382;42.136;24.796;2023-01-31T03:23:27;99369.13;;;5.57;88.06
10668;BME280;5382;42.136;24.796;2023-01-31T03:25:58;99383.59;;;5.64;87.30
10668;BME280;5382;42.136;24.796;2023-01-31T03:28:28;99386.41;;;5.61;85.90
10668;BME280;5382;42.136;24.796;2023-01-31T03:31:00;99386.59;;;5.58;87.20
10668;BME280;5382;42.136;24.796;2023-01-31T03:33:31;99399.88;;;5.55;83.64
10668;BME280;5382;42.136;24.796;2023-01-31T03:36:05;99402.47;;;5.40;84.40
10668;BME280;5382;42.136;24.796;2023-01-31T03:38:39;99394.63;;;5.40;83.81
10668;BME280;5382;42.136;24.796;2023-01-31T03:41:14;99387.44;;;5.28;82.35
10668;BME280;5382;42.136;24.796;2023-01-31T03:43:51;99330.97;;;4.92;84.10
10668;BME280;5382;42.136;24.796;2023-01-31T03:46:23;99391.03;;;5.27;84.61
10668;BME280;5382;42.136;24.796;2023-01-31T03:48:54;99393.66;;;5.27;84.05
10668;BME280;5382;42.136;24.796;2023-01-31T03:51:26;99409.47;;;5.25;81.63
10668;BME280;5382;42.136;24.796;2023-01-31T03:53:57;99401.69;;;5.24;82.52
10668;BME280;5382;42.136;24.796;2023-01-31T03:56:29;99411.50;;;5.20;82.86
10668;BME280;5382;42.136;24.796;2023-01-31T03:59:02;99403.75;;;5.19;82.65
10668;BME280;5382;42.136;24.796;2023-01-31T04:01:33;99413.97;;;5.08;79.89
10668;BME280;5382;42.136;24.796;2023-01-31T04:04:04;99407.53;;;5.13;77.26
10668;BME280;5382;42.136;24.796;2023-01-31T04:06:34;99419.91;;;5.11;75.66
10668;BME280;5382;42.136;24.796;2023-01-31T04:09:01;99447.31;;;5.06;73.75
10668;BME280;5382;42.136;24.796;2023-01-31T04:11:29;99431.41;;;4.93;74.38
10668;BME280;5382;42.136;24.796;2023-01-31T04:14:01;99421.44;;;4.99;74.90
10668;BME280;5382;42.136;24.796;2023-01-31T04:16:28;99425.91;;;4.97;74.66
10668;BME280;5382;42.136;24.796;2023-01-31T04:18:54;99441.06;;;4.92;74.76
10668;BME280;5382;42.136;24.796;2023-01-31T04:21:21;99411.91;;;4.51;75.35
10668;BME280;5382;42.136;24.796;2023-01-31T04:23:49;99435.22;;;4.87;76.66
10668;BME280;5382;42.136;24.796;2023-01-31T04:26:16;99434.75;;;4.80;78.15
10668;BME280;5382;42.136;24.796;2023-01-31T04:28:43;99439.47;;;4.74;80.01
10668;BME280;5382;42.136;24.796;2023-01-31T04:31:10;99469.47;;;4.68;81.08
10668;BME280;5382;42.136;24.796;2023-01-31T04:33:37;99442.69;;;4.63;82.96
10668;BME280;5382;42.136;24.796;2023-01-31T04:36:04;99433.69;;;4.51;83.17
10668;BME280;5382;42.136;24.796;2023-01-31T04:38:31;99463.28;;;4.53;84.69
10668;BME280;5382;42.136;24.796;2023-01-31T04:40:59;99470.25;;;4.54;85.90
10668;BME280;5382;42.136;24.796;2023-01-31T04:43:26;99463.03;;;4.42;87.29
10668;BME280;5382;42.136;24.796;2023-01-31T04:45:53;99480.25;;;4.46;88.54
10668;BME280;5382;42.136;24.796;2023-01-31T04:48:19;99488.94;;;4.31;90.57
10668;BME280;5382;42.136;24.796;2023-01-31T04:50:46;99473.75;;;4.37;91.81
10668;BME280;5382;42.136;24.796;2023-01-31T04:53:13;99497.66;;;4.31;93.07
10668;BME280;5382;42.136;24.796;2023-01-31T04:55:40;99464.44;;;4.32;94.69
10668;BME280;5382;42.136;24.796;2023-01-31T04:58:08;99478.63;;;4.28;94.61
10668;BME280;5382;42.136;24.796;2023-01-31T05:00:35;99478.84;;;4.23;95.25
10668;BME280;5382;42.136;24.796;2023-01-31T05:03:02;99460.47;;;4.25;95.83
10668;BME280;5382;42.136;24.796;2023-01-31T05:05:29;99457.16;;;4.21;96.06
10668;BME280;5382;42.136;24.796;2023-01-31T05:07:56;99472.88;;;4.21;96.18
10668;BME280;5382;42.136;24.796;2023-01-31T05:10:24;99485.19;;;4.19;95.89
10668;BME280;5382;42.136;24.796;2023-01-31T05:12:51;99461.53;;;4.21;96.10
10668;BME280;5382;42.136;24.796;2023-01-31T05:15:19;99474.50;;;4.24;95.73
10668;BME280;5382;42.136;24.796;2023-01-31T05:17:50;99453.06;;;4.15;97.01
10668;BME280;5382;42.136;24.796;2023-01-31T05:20:18;99463.28;;;4.04;98.78
10668;BME280;5382;42.136;24.796;2023-01-31T05:22:46;99479.91;;;4.03;100.00
10668;BME280;5382;42.136;24.796;2023-01-31T05:25:13;99465.50;;;3.94;100.00
10668;BME280;5382;42.136;24.796;2023-01-31T05:27:40;99433.16;;;3.80;100.00
10668;BME280;5382;42.136;24.796;2023-01-31T05:30:10;99474.13;;;3.97;100.00
10668;BME280;5382;42.136;24.796;2023-01-31T05:32:38;99439.00;;;3.85;100.00
10668;BME280;5382;42.136;24.796;2023-01-31T05:35:06;99501.88;;;4.01;99.91
10668;BME280;5382;42.136;24.796;2023-01-31T05:37:33;99480.75;;;4.04;100.00
10668;BME280;5382;42.136;24.796;2023-01-31T05:40:00;99465.59;;;3.93;100.00
10668;BME280;5382;42.136;24.796;2023-01-31T05:42:26;99478.13;;;4.04;100.00
10668;BME280;5382;42.136;24.796;2023-01-31T05:44:53;99517.41;;;4.04;99.92
10668;BME280;5382;42.136;24.796;2023-01-31T05:47:20;99483.94;;;3.93;99.23
10668;BME280;5382;42.136;24.796;2023-01-31T05:49:49;99490.28;;;4.05;99.46
10668;BME280;5382;42.136;24.796;2023-01-31T05:52:16;99501.75;;;4.02;99.30
10668;BME280;5382;42.136;24.796;2023-01-31T05:54:42;99500.03;;;4.03;99.95
10668;BME280;5382;42.136;24.796;2023-01-31T05:57:09;99508.25;;;3.95;99.99
10668;BME280;5382;42.136;24.796;2023-01-31T05:59:36;99510.78;;;3.97;100.00
10668;BME280;5382;42.136;24.796;2023-01-31T06:02:04;99510.72;;;3.98;100.00
10668;BME280;5382;42.136;24.796;2023-01-31T06:04:33;99463.16;;;3.55;100.00
10668;BME280;5382;42.136;24.796;2023-01-31T06:07:01;99518.25;;;4.04;100.00
10668;BME280;5382;42.136;24.796;2023-01-31T06:09:28;99541.91;;;4.03;100.00
10668;BME280;5382;42.136;24.796;2023-01-31T06:11:55;99524.72;;;3.97;100.00
10668;BME280;5382;42.136;24.796;2023-01-31T06:14:22;99528.28;;;3.96;100.00
10668;BME280;5382;42.136;24.796;2023-01-31T06:16:48;99505.03;;;3.90;100.00
10668;BME280;5382;42.136;24.796;2023-01-31T06:19:18;99529.44;;;3.90;100.00
10668;BME280;5382;42.136;24.796;2023-01-31T06:21:49;99541.69;;;3.90;100.00
10668;BME280;5382;42.136;24.796;2023-01-31T06:24:17;99545.91;;;3.92;100.00
10668;BME280;5382;42.136;24.796;2023-01-31T06:26:44;99531.81;;;3.95;100.00
10668;BME280;5382;42.136;24.796;2023-01-31T06:29:11;99549.03;;;3.99;100.00
10668;BME280;5382;42.136;24.796;2023-01-31T06:31:38;99502.53;;;3.87;100.00
10668;BME280;5382;42.136;24.796;2023-01-31T06:34:05;99553.56;;;4.13;100.00
10668;BME280;5382;42.136;24.796;2023-01-31T06:36:32;99532.50;;;4.16;100.00
10668;BME280;5382;42.136;24.796;2023-01-31T06:38:59;99538.19;;;4.24;100.00
10668;BME280;5382;42.136;24.796;2023-01-31T06:41:27;99544.19;;;4.26;100.00
10668;BME280;5382;42.136;24.796;2023-01-31T06:43:54;99488.78;;;4.34;100.00
10668;BME280;5382;42.136;24.796;2023-01-31T06:46:21;99543.63;;;4.37;100.00
10668;BME280;5382;42.136;24.796;2023-01-31T06:48:48;99542.38;;;4.44;100.00
10668;BME280;5382;42.136;24.796;2023-01-31T06:51:15;99549.84;;;4.52;100.00
10668;BME280;5382;42.136;24.796;2023-01-31T06:53:42;99554.81;;;4.56;100.00
10668;BME280;5382;42.136;24.796;2023-01-31T06:56:09;99546.66;;;4.63;100.00
10668;BME280;5382;42.136;24.796;2023-01-31T06:58:37;99541.88;;;4.53;100.00
10668;BME280;5382;42.136;24.796;2023-01-31T07:01:04;99579.31;;;4.73;100.00
10668;BME280;5382;42.136;24.796;2023-01-31T07:03:31;99570.28;;;4.78;100.00
10668;BME280;5382;42.136;24.796;2023-01-31T07:05:58;99551.09;;;4.78;100.00
10668;BME280;5382;42.136;24.796;2023-01-31T07:08:25;99568.00;;;4.88;100.00
10668;BME280;5382;42.136;24.796;2023-01-31T07:10:51;99554.03;;;4.88;100.00
10668;BME280;5382;42.136;24.796;2023-01-31T07:13:18;99576.47;;;4.93;100.00
10668;BME280;5382;42.136;24.796;2023-01-31T07:15:46;99568.25;;;4.99;100.00
10668;BME280;5382;42.136;24.796;2023-01-31T07:18:13;99580.44;;;5.00;100.00
10668;BME280;5382;42.136;24.796;2023-01-31T07:20:40;99568.00;;;4.88;100.00
10668;BME280;5382;42.136;24.796;2023-01-31T07:23:07;99582.56;;;4.94;100.00
10668;BME280;5382;42.136;24.796;2023-01-31T07:25:34;99575.47;;;4.96;100.00
10668;BME280;5382;42.136;24.796;2023-01-31T07:28:02;99591.69;;;5.02;100.00
10668;BME280;5382;42.136;24.796;2023-01-31T07:30:29;99604.50;;;5.09;100.00
10668;BME280;5382;42.136;24.796;2023-01-31T07:32:59;99592.81;;;4.98;100.00
10668;BME280;5382;42.136;24.796;2023-01-31T07:35:27;99603.81;;;5.21;100.00
10668;BME280;5382;42.136;24.796;2023-01-31T07:37:54;99595.09;;;5.20;100.00
10668;BME280;5382;42.136;24.796;2023-01-31T07:40:21;99616.78;;;5.24;100.00
10668;BME280;5382;42.136;24.796;2023-01-31T07:42:47;99629.63;;;5.29;100.00
10668;BME280;5382;42.136;24.796;2023-01-31T07:45:14;99653.66;;;5.37;100.00
10668;BME280;5382;42.136;24.796;2023-01-31T07:47:41;99605.75;;;5.33;100.00
10668;BME280;5382;42.136;24.796;2023-01-31T07:50:10;99626.41;;;5.39;100.00
10668;BME280;5382;42.136;24.796;2023-01-31T07:52:37;99604.50;;;5.40;100.00
10668;BME280;5382;42.136;24.796;2023-01-31T07:55:05;99596.53;;;5.42;99.61
10668;BME280;5382;42.136;24.796;2023-01-31T07:57:35;99612.97;;;5.45;100.00
10668;BME280;5382;42.136;24.796;2023-01-31T08:00:02;99595.09;;;5.52;97.54
10668;BME280;5382;42.136;24.796;2023-01-31T08:02:49;99620.91;;;5.60;94.84
10668;BME280;5382;42.136;24.796;2023-01-31T08:05:35;99619.81;;;5.64;94.58
10668;BME280;5382;42.136;24.796;2023-01-31T08:08:02;99620.13;;;5.74;93.02
10668;BME280;5382;42.136;24.796;2023-01-31T08:10:35;99628.09;;;5.72;91.68
10668;BME280;5382;42.136;24.796;2023-01-31T08:13:04;99622.66;;;5.75;90.46
10668;BME280;5382;42.136;24.796;2023-01-31T08:15:31;99635.31;;;5.68;91.21
10668;BME280;5382;42.136;24.796;2023-01-31T08:17:58;99642.31;;;5.84;90.90
10668;BME280;5382;42.136;24.796;2023-01-31T08:20:25;99646.63;;;5.85;90.60
10668;BME280;5382;42.136;24.796;2023-01-31T08:22:55;99634.00;;;5.92;90.47
10668;BME280;5382;42.136;24.796;2023-01-31T08:25:22;99619.72;;;5.81;91.18
10668;BME280;5382;42.136;24.796;2023-01-31T08:27:51;99622.84;;;5.72;92.12
10668;BME280;5382;42.136;24.796;2023-01-31T08:30:17;99649.06;;;5.88;91.43
10668;BME280;5382;42.136;24.796;2023-01-31T08:32:44;99638.31;;;5.93;91.99
10668;BME280;5382;42.136;24.796;2023-01-31T08:35:12;99650.28;;;5.98;90.17
10668;BME280;5382;42.136;24.796;2023-01-31T08:37:39;99644.38;;;5.95;90.51
10668;BME280;5382;42.136;24.796;2023-01-31T08:40:09;99644.50;;;6.07;90.38
10668;BME280;5382;42.136;24.796;2023-01-31T08:42:35;99649.19;;;6.02;89.69
10668;BME280;5382;42.136;24.796;2023-01-31T08:45:03;99646.28;;;6.07;89.63
10668;BME280;5382;42.136;24.796;2023-01-31T08:47:31;99653.31;;;6.06;90.32
10668;BME280;5382;42.136;24.796;2023-01-31T08:49:58;99619.28;;;5.89;90.06
10668;BME280;5382;42.136;24.796;2023-01-31T08:52:25;99660.28;;;6.07;90.44
10668;BME280;5382;42.136;24.796;2023-01-31T08:54:53;99660.59;;;6.17;89.21
10668;BME280;5382;42.136;24.796;2023-01-31T08:57:23;99606.41;;;5.84;90.66
10668;BME280;5382;42.136;24.796;2023-01-31T08:59:49;99649.31;;;6.15;91.27
10668;BME280;5382;42.136;24.796;2023-01-31T09:02:17;99654.72;;;6.28;90.68
10668;BME280;5382;42.136;24.796;2023-01-31T09:04:44;99595.53;;;5.90;90.43
10668;BME280;5382;42.136;24.796;2023-01-31T09:07:11;99622.91;;;6.02;90.72
10668;BME280;5382;42.136;24.796;2023-01-31T09:09:38;99663.69;;;6.24;91.13
10668;BME280;5382;42.136;24.796;2023-01-31T09:12:05;99683.44;;;6.31;90.60
10668;BME280;5382;42.136;24.796;2023-01-31T09:14:33;99666.25;;;6.25;92.67
10668;BME280;5382;42.136;24.796;2023-01-31T09:17:00;99658.13;;;6.14;91.60
10668;BME280;5382;42.136;24.796;2023-01-31T09:19:27;99667.41;;;6.36;92.43
10668;BME280;5382;42.136;24.796;2023-01-31T09:21:54;99643.75;;;6.36;89.36
10668;BME280;5382;42.136;24.796;2023-01-31T09:24:21;99665.81;;;6.77;89.56
10668;BME280;5382;42.136;24.796;2023-01-31T09:26:48;99648.53;;;7.02;86.64
10668;BME280;5382;42.136;24.796;2023-01-31T09:29:15;99630.78;;;6.91;83.83
10668;BME280;5382;42.136;24.796;2023-01-31T09:31:43;99633.78;;;7.14;82.75
10668;BME280;5382;42.136;24.796;2023-01-31T09:34:10;99671.09;;;7.20;81.29
10668;BME280;5382;42.136;24.796;2023-01-31T09:36:38;99648.63;;;7.43;80.38
10668;BME280;5382;42.136;24.796;2023-01-31T09:39:05;99646.06;;;7.42;77.98
10668;BME280;5382;42.136;24.796;2023-01-31T09:41:35;99653.56;;;7.48;79.18
10668;BME280;5382;42.136;24.796;2023-01-31T09:44:05;99653.97;;;7.28;80.02
10668;BME280;5382;42.136;24.796;2023-01-31T09:46:38;99656.91;;;7.23;81.09
10668;BME280;5382;42.136;24.796;2023-01-31T09:49:14;99645.50;;;7.22;82.78
10668;BME280;5382;42.136;24.796;2023-01-31T09:51:51;99629.44;;;7.27;83.61
10668;BME280;5382;42.136;24.796;2023-01-31T09:54:24;99620.72;;;7.27;83.12
10668;BME280;5382;42.136;24.796;2023-01-31T09:56:59;99613.63;;;7.41;83.43
10668;BME280;5382;42.136;24.796;2023-01-31T09:59:37;99588.56;;;7.63;82.66
10668;BME280;5382;42.136;24.796;2023-01-31T10:02:22;99601.81;;;7.61;79.97
10668;BME280;5382;42.136;24.796;2023-01-31T10:05:05;99603.38;;;7.78;80.36
10668;BME280;5382;42.136;24.796;2023-01-31T10:07:42;99590.75;;;7.83;75.86
10668;BME280;5382;42.136;24.796;2023-01-31T10:10:17;99582.88;;;7.96;76.18
10668;BME280;5382;42.136;24.796;2023-01-31T10:12:52;99600.78;;;7.91;72.85
10668;BME280;5382;42.136;24.796;2023-01-31T10:15:29;99572.59;;;7.79;74.18
10668;BME280;5382;42.136;24.796;2023-01-31T10:18:02;99577.19;;;8.02;74.53
10668;BME280;5382;42.136;24.796;2023-01-31T10:20:36;99578.06;;;8.16;72.07
10668;BME280;5382;42.136;24.796;2023-01-31T10:23:09;99597.56;;;8.26;71.67
10668;BME280;5382;42.136;24.796;2023-01-31T10:25:40;99591.56;;;8.11;71.22
10668;BME280;5382;42.136;24.796;2023-01-31T10:28:12;99562.16;;;8.30;71.81
10668;BME280;5382;42.136;24.796;2023-01-31T10:30:44;99566.28;;;8.21;70.90
10668;BME280;5382;42.136;24.796;2023-01-31T10:33:27;99568.19;;;8.19;71.35
10668;BME280;5382;42.136;24.796;2023-01-31T10:36:01;99556.91;;;8.30;69.85
10668;BME280;5382;42.136;24.796;2023-01-31T10:38:31;99557.84;;;8.29;69.36
10668;BME280;5382;42.136;24.796;2023-01-31T10:41:05;99574.28;;;8.20;71.17
10668;BME280;5382;42.136;24.796;2023-01-31T10:43:37;99558.16;;;8.12;71.08
10668;BME280;5382;42.136;24.796;2023-01-31T10:46:09;99545.25;;;8.47;71.71
10668;BME280;5382;42.136;24.796;2023-01-31T10:48:37;99564.59;;;8.33;71.20
10668;BME280;5382;42.136;24.796;2023-01-31T10:51:19;99549.25;;;8.52;71.31
10668;BME280;5382;42.136;24.796;2023-01-31T10:54:02;99545.88;;;8.63;68.35
10668;BME280;5382;42.136;24.796;2023-01-31T10:56:32;99541.44;;;8.64;69.63
10668;BME280;5382;42.136;24.796;2023-01-31T10:59:03;99548.72;;;8.47;70.59
10668;BME280;5382;42.136;24.796;2023-01-31T11:01:33;99469.28;;;7.88;70.12
10668;BME280;5382;42.136;24.796;2023-01-31T11:04:01;99544.31;;;8.98;68.12
10668;BME280;5382;42.136;24.796;2023-01-31T11:06:29;99536.75;;;9.30;65.35
10668;BME280;5382;42.136;24.796;2023-01-31T11:08:58;99508.94;;;9.61;63.49
10668;BME280;5382;42.136;24.796;2023-01-31T11:11:27;99550.72;;;10.26;60.99
10668;BME280;5382;42.136;24.796;2023-01-31T11:13:57;99527.00;;;10.72;59.16
10668;BME280;5382;42.136;24.796;2023-01-31T11:16:27;99525.28;;;10.93;57.62
10668;BME280;5382;42.136;24.796;2023-01-31T11:18:56;99534.44;;;10.33;59.12
10668;BME280;5382;42.136;24.796;2023-01-31T11:21:28;99524.47;;;9.66;61.55
10668;BME280;5382;42.136;24.796;2023-01-31T11:24:00;99536.66;;;9.18;63.45
10668;BME280;5382;42.136;24.796;2023-01-31T11:26:30;99531.19;;;9.46;64.24
10668;BME280;5382;42.136;24.796;2023-01-31T11:28:58;99531.78;;;10.09;61.71
10668;BME280;5382;42.136;24.796;2023-01-31T11:31:29;99478.28;;;9.94;61.70
10668;BME280;5382;42.136;24.796;2023-01-31T11:33:59;99513.63;;;10.62;59.64
10668;BME280;5382;42.136;24.796;2023-01-31T11:36:30;99525.91;;;10.63;57.81
10668;BME280;5382;42.136;24.796;2023-01-31T11:39:20;99521.34;;;10.07;58.76
10668;BME280;5382;42.136;24.796;2023-01-31T11:41:50;99520.47;;;9.95;59.87
10668;BME280;5382;42.136;24.796;2023-01-31T11:44:18;99530.63;;;9.53;61.12
10668;BME280;5382;42.136;24.796;2023-01-31T11:46:48;99500.66;;;8.93;64.49
10668;BME280;5382;42.136;24.796;2023-01-31T11:49:28;99514.63;;;8.70;66.92
10668;BME280;5382;42.136;24.796;2023-01-31T11:51:57;99502.50;;;8.67;68.87
10668;BME280;5382;42.136;24.796;2023-01-31T11:54:28;99524.56;;;8.54;70.21
10668;BME280;5382;42.136;24.796;2023-01-31T11:56:57;99511.28;;;8.42;71.84
10668;BME280;5382;42.136;24.796;2023-01-31T11:59:28;99529.19;;;8.24;74.40
10668;BME280;5382;42.136;24.796;2023-01-31T12:01:57;99510.69;;;7.99;77.19
10668;BME280;5382;42.136;24.796;2023-01-31T12:04:30;99508.69;;;8.02;78.91
10668;BME280;5382;42.136;24.796;2023-01-31T12:07:00;99504.69;;;8.09;79.83
10668;BME280;5382;42.136;24.796;2023-01-31T12:09:38;99471.69;;;7.78;79.85
10668;BME280;5382;42.136;24.796;2023-01-31T12:12:21;99506.38;;;7.85;80.74
10668;BME280;5382;42.136;24.796;2023-01-31T12:14:49;99522.50;;;7.93;81.42
10668;BME280;5382;42.136;24.796;2023-01-31T12:17:17;99520.34;;;7.73;78.63
10668;BME280;5382;42.136;24.796;2023-01-31T12:20:09;99529.28;;;7.70;80.56
10668;BME280;5382;42.136;24.796;2023-01-31T12:22:46;99532.31;;;7.64;82.79
10668;BME280;5382;42.136;24.796;2023-01-31T12:25:21;99543.72;;;7.64;85.06
10668;BME280;5382;42.136;24.796;2023-01-31T12:28:02;99551.28;;;7.56;83.64
10668;BME280;5382;42.136;24.796;2023-01-31T12:31:00;99549.91;;;7.36;87.45
10668;BME280;5382;42.136;24.796;2023-01-31T12:33:39;99551.88;;;7.33;89.91
10668;BME280;5382;42.136;24.796;2023-01-31T12:36:36;99544.59;;;7.24;93.02
10668;BME280;5382;42.136;24.796;2023-01-31T12:39:25;99546.81;;;7.30;93.82
10668;BME280;5382;42.136;24.796;2023-01-31T12:42:05;99549.25;;;7.33;94.59
10668;BME280;5382;42.136;24.796;2023-01-31T12:44:42;99544.31;;;7.28;94.63
10668;BME280;5382;42.136;24.796;2023-01-31T12:47:40;99545.78;;;7.32;97.81
10668;BME280;5382;42.136;24.796;2023-01-31T12:50:26;99552.75;;;7.33;97.52
10668;BME280;5382;42.136;24.796;2023-01-31T12:53:13;99549.84;;;7.24;97.54
10668;BME280;5382;42.136;24.796;2023-01-31T12:55:49;99571.41;;;7.16;100.00
10668;BME280;5382;42.136;24.796;2023-01-31T12:58:38;99568.03;;;6.85;100.00
10668;BME280;5382;42.136;24.796;2023-01-31T13:01:09;99549.19;;;6.64;100.00
10668;BME280;5382;42.136;24.796;2023-01-31T13:03:52;99531.53;;;6.66;100.00
10668;BME280;5382;42.136;24.796;2023-01-31T13:06:25;99561.00;;;6.86;100.00
10668;BME280;5382;42.136;24.796;2023-01-31T13:08:58;99547.88;;;6.71;100.00
10668;BME280;5382;42.136;24.796;2023-01-31T13:11:32;99562.78;;;6.71;100.00
10668;BME280;5382;42.136;24.796;2023-01-31T13:14:04;99578.38;;;6.60;100.00
10668;BME280;5382;42.136;24.796;2023-01-31T13:16:36;99564.81;;;6.23;100.00
10668;BME280;5382;42.136;24.796;2023-01-31T13:19:09;99571.16;;;6.19;100.00
10668;BME280;5382;42.136;24.796;2023-01-31T13:21:42;99573.53;;;6.23;100.00
10668;BME280;5382;42.136;24.796;2023-01-31T13:24:12;99566.78;;;6.33;100.00
10668;BME280;5382;42.136;24.796;2023-01-31T13:26:44;99569.03;;;6.40;100.00
10668;BME280;5382;42.136;24.796;2023-01-31T13:29:17;99578.25;;;6.47;100.00